createdAt,value
2023-04-02T00:00:29.443Z,9.27
2023-04-02T00:01:36.996Z,9.33
2023-04-02T00:02:33.922Z,8.99
2023-04-02T00:03:46.012Z,9.34
2023-04-02T00:04:42.903Z,9.54
2023-04-02T00:05:54.889Z,9.56
2023-04-02T00:07:30.215Z,9.37
2023-04-02T00:08:38.991Z,9.50
2023-04-02T00:09:39.239Z,9.29
2023-04-02T00:10:53.267Z,9.43
2023-04-02T00:11:55.905Z,9.46
2023-04-02T00:13:10.994Z,9.58
2023-04-02T00:14:17.554Z,9.41
2023-04-02T00:15:17.652Z,9.28
2023-04-02T00:16:23.312Z,9.76
2023-04-02T00:17:24.700Z,9.42
2023-04-02T00:18:22.869Z,9.29
2023-04-02T00:19:36.028Z,9.34
2023-04-02T00:20:38.792Z,8.85
2023-04-02T00:21:39.870Z,9.74
2023-04-02T00:22:44.642Z,9.55
2023-04-02T00:23:44.243Z,9.75
2023-04-02T00:25:01.226Z,9.61
2023-04-02T00:25:58.175Z,9.59
2023-04-02T00:26:56.072Z,9.46
2023-04-02T00:27:52.958Z,9.45
2023-04-02T00:28:51.524Z,9.35
2023-04-02T00:29:50.762Z,9.41
2023-04-02T00:30:52.946Z,9.22
2023-04-02T00:31:54.857Z,9.17
2023-04-02T00:32:52.615Z,8.61
2023-04-02T00:33:50.659Z,8.68
2023-04-02T00:34:47.584Z,8.73
2023-04-02T00:35:45.063Z,9.12
2023-04-02T00:36:44.348Z,8.81
2023-04-02T00:37:42.314Z,9.18
2023-04-02T00:38:43.763Z,9.00
2023-04-02T00:39:41.579Z,9.27
2023-04-02T00:40:39.871Z,9.02
2023-04-02T00:41:38.844Z,9.40
2023-04-02T00:42:40.204Z,9.55
2023-04-02T00:43:39.686Z,9.48
2023-04-02T00:44:43.246Z,9.54
2023-04-02T00:45:41.481Z,9.57
2023-04-02T00:46:49.623Z,9.50
2023-04-02T00:47:46.530Z,9.44
2023-04-02T00:48:59.166Z,9.72
2023-04-02T00:50:02.605Z,9.69
2023-04-02T00:51:28.682Z,9.52
2023-04-02T00:52:30.736Z,8.92
2023-04-02T00:53:31.045Z,9.60
2023-04-02T00:54:32.754Z,9.70
2023-04-02T00:55:41.851Z,9.54
2023-04-02T00:56:46.386Z,9.74
2023-04-02T00:57:45.288Z,9.69
2023-04-02T00:58:44.748Z,9.67
2023-04-02T01:00:19.784Z,9.72
2023-04-02T01:01:20.202Z,9.49
2023-04-02T01:02:19.815Z,9.81
2023-04-02T01:03:16.823Z,9.69
2023-04-02T01:04:34.856Z,9.67
2023-04-02T01:05:36.058Z,9.51
2023-04-02T01:06:38.885Z,9.53
2023-04-02T01:07:44.716Z,9.77
2023-04-02T01:08:56.889Z,9.80
2023-04-02T01:10:11.786Z,9.80
2023-04-02T01:11:39.445Z,9.10
2023-04-02T01:12:53.955Z,9.62
2023-04-02T01:14:18.268Z,9.83
2023-04-02T01:15:30.692Z,9.05
2023-04-02T01:16:30.889Z,9.73
2023-04-02T01:17:36.653Z,9.74
2023-04-02T01:18:46.503Z,9.53
2023-04-02T01:20:19.726Z,9.51
2023-04-02T01:21:44.019Z,9.32
2023-04-02T01:23:08.099Z,8.58
2023-04-02T01:24:08.740Z,8.32
2023-04-02T01:25:06.587Z,8.48
2023-04-02T01:26:27.360Z,8.29
2023-04-02T01:27:42.376Z,8.23
2023-04-02T01:29:02.855Z,8.45
2023-04-02T01:30:07.319Z,8.30
2023-04-02T01:31:05.206Z,8.07
2023-04-02T01:32:10.871Z,8.33
2023-04-02T01:33:07.845Z,8.60
2023-04-02T01:34:09.633Z,8.43
2023-04-02T01:35:09.247Z,8.42
2023-04-02T01:36:18.514Z,8.59
2023-04-02T01:37:34.210Z,8.70
2023-04-02T01:38:56.980Z,8.53
2023-04-02T01:40:27.834Z,8.45
2023-04-02T01:41:39.591Z,7.96
2023-04-02T01:43:19.999Z,7.77
2023-04-02T01:44:29.686Z,8.39
2023-04-02T01:45:27.126Z,8.25
2023-04-02T01:46:30.548Z,8.41
2023-04-02T01:47:29.033Z,8.22
2023-04-02T01:48:30.431Z,8.34
2023-04-02T01:49:27.377Z,7.94
2023-04-02T01:50:37.297Z,7.90
2023-04-02T01:51:39.562Z,7.96
2023-04-02T01:52:43.261Z,8.14
2023-04-02T01:53:40.313Z,8.19
2023-04-02T01:54:37.957Z,8.31
2023-04-02T01:55:48.980Z,7.96
2023-04-02T01:56:47.396Z,8.67
2023-04-02T01:57:52.484Z,8.20
2023-04-02T01:58:50.099Z,8.31
2023-04-02T01:59:47.084Z,8.42
2023-04-02T02:00:51.128Z,7.43
2023-04-02T02:02:05.698Z,8.06
2023-04-02T02:03:03.909Z,7.82
2023-04-02T02:04:02.746Z,8.19
2023-04-02T02:04:59.711Z,8.13
2023-04-02T02:05:58.179Z,7.55
2023-04-02T02:06:58.673Z,8.26
2023-04-02T02:07:58.440Z,8.17
2023-04-02T02:09:04.410Z,8.08
2023-04-02T02:10:01.689Z,8.32
2023-04-02T02:10:59.254Z,8.46
2023-04-02T02:11:58.935Z,7.99
2023-04-02T02:12:59.337Z,8.58
2023-04-02T02:14:00.111Z,8.56
2023-04-02T02:14:56.944Z,8.36
2023-04-02T02:16:00.994Z,8.03
2023-04-02T02:17:02.941Z,8.26
2023-04-02T02:18:05.965Z,8.57
2023-04-02T02:19:05.159Z,8.65
2023-04-02T02:20:11.015Z,7.59
2023-04-02T02:21:10.753Z,8.59
2023-04-02T02:22:28.508Z,8.59
2023-04-02T02:23:29.906Z,8.52
2023-04-02T02:24:33.443Z,8.44
2023-04-02T02:25:37.003Z,8.31
2023-04-02T02:26:36.427Z,8.35
2023-04-02T02:27:51.217Z,8.33
2023-04-02T02:28:55.352Z,8.46
2023-04-02T02:29:54.136Z,8.42
2023-04-02T02:30:59.011Z,7.91
2023-04-02T02:31:59.897Z,8.53
2023-04-02T02:33:21.741Z,8.27
2023-04-02T02:34:26.436Z,8.51
2023-04-02T02:35:30.937Z,8.23
2023-04-02T02:36:35.041Z,8.48
2023-04-02T02:37:40.763Z,8.52
2023-04-02T02:38:47.786Z,8.30
2023-04-02T02:39:52.109Z,7.96
2023-04-02T02:40:57.849Z,8.51
2023-04-02T02:42:02.448Z,8.30
2023-04-02T02:43:06.379Z,8.17
2023-04-02T02:44:08.770Z,8.32
2023-04-02T02:45:14.982Z,8.30
2023-04-02T02:46:20.691Z,8.37
2023-04-02T02:47:31.418Z,8.34
2023-04-02T02:48:38.376Z,8.40
2023-04-02T02:49:53.270Z,8.41
2023-04-02T02:50:51.682Z,8.64
2023-04-02T02:51:58.271Z,8.50
2023-04-02T02:52:57.904Z,8.00
2023-04-02T02:54:02.205Z,8.22
2023-04-02T02:55:05.134Z,8.01
2023-04-02T02:56:02.759Z,8.05
2023-04-02T02:57:07.680Z,7.74
2023-04-02T02:58:19.515Z,8.07
2023-04-02T02:59:19.061Z,8.27
2023-04-02T03:00:19.839Z,8.24
2023-04-02T03:01:18.847Z,6.57
2023-04-02T03:02:16.451Z,8.30
2023-04-02T03:03:28.169Z,8.03
2023-04-02T03:04:25.816Z,8.16
2023-04-02T03:05:27.978Z,8.03
2023-04-02T03:06:25.005Z,8.12
2023-04-02T03:07:25.722Z,8.27
2023-04-02T03:08:34.000Z,7.64
2023-04-02T03:09:52.598Z,8.27
2023-04-02T03:11:02.576Z,8.34
2023-04-02T03:12:16.365Z,8.14
2023-04-02T03:13:25.670Z,8.26
2023-04-02T03:14:44.223Z,7.85
2023-04-02T03:16:02.904Z,7.78
2023-04-02T03:17:35.877Z,7.92
2023-04-02T03:19:00.419Z,8.18
2023-04-02T03:20:14.618Z,7.78
2023-04-02T03:21:39.740Z,8.15
2023-04-02T03:23:05.933Z,7.96
2023-04-02T03:24:09.601Z,7.71
2023-04-02T03:25:31.357Z,8.15
2023-04-02T03:26:41.162Z,8.40
2023-04-02T03:27:44.400Z,7.99
2023-04-02T03:28:55.670Z,7.87
2023-04-02T03:30:13.974Z,7.68
2023-04-02T03:31:17.189Z,8.22
2023-04-02T03:32:26.093Z,8.20
2023-04-02T03:33:40.187Z,8.24
2023-04-02T03:35:13.907Z,8.23
2023-04-02T03:36:31.707Z,7.62
2023-04-02T03:37:43.392Z,7.60
2023-04-02T03:38:57.898Z,7.64
2023-04-02T03:40:11.242Z,7.94
2023-04-02T03:41:19.793Z,8.12
2023-04-02T03:42:26.112Z,7.97
2023-04-02T03:43:32.300Z,8.09
2023-04-02T03:44:35.720Z,8.13
2023-04-02T03:45:42.115Z,7.97
2023-04-02T03:46:46.510Z,8.13
2023-04-02T03:47:52.457Z,8.10
2023-04-02T03:48:57.923Z,8.07
2023-04-02T03:50:12.325Z,8.29
2023-04-02T03:51:30.852Z,8.11
2023-04-02T03:52:29.387Z,8.02
2023-04-02T03:53:29.412Z,7.44
2023-04-02T03:54:26.495Z,8.44
2023-04-02T03:55:32.213Z,8.11
2023-04-02T03:56:40.170Z,8.05
2023-04-02T03:57:54.605Z,8.11
2023-04-02T03:59:05.041Z,7.83
2023-04-02T04:00:28.121Z,7.79
2023-04-02T04:01:34.547Z,7.90
2023-04-02T04:02:43.410Z,7.69
2023-04-02T04:03:47.203Z,7.19
2023-04-02T04:04:46.941Z,7.45
2023-04-02T04:05:58.947Z,7.89
2023-04-02T04:06:58.518Z,7.94
2023-04-02T04:08:01.420Z,8.06
2023-04-02T04:09:10.415Z,7.97
2023-04-02T04:10:19.485Z,7.94
2023-04-02T04:11:22.819Z,8.05
2023-04-02T04:12:40.901Z,8.05
2023-04-02T04:13:49.481Z,6.85
2023-04-02T04:14:58.134Z,7.67
2023-04-02T04:16:02.909Z,7.60
2023-04-02T04:17:09.558Z,7.73
2023-04-02T04:18:24.534Z,7.24
2023-04-02T04:19:55.049Z,6.59
2023-04-02T04:21:01.261Z,6.93
2023-04-02T04:22:34.676Z,7.19
2023-04-02T04:23:38.540Z,7.23
2023-04-02T04:24:39.345Z,7.10
2023-04-02T04:25:37.203Z,7.22
2023-04-02T04:26:40.396Z,7.40
2023-04-02T04:27:47.038Z,7.34
2023-04-02T04:29:16.828Z,7.10
2023-04-02T04:30:28.565Z,7.31
2023-04-02T04:31:38.924Z,7.16
2023-04-02T04:32:50.403Z,7.41
2023-04-02T04:33:54.971Z,7.50
2023-04-02T04:34:58.519Z,6.85
2023-04-02T04:36:00.167Z,7.41
2023-04-02T04:37:07.686Z,7.00
2023-04-02T04:38:34.615Z,7.34
2023-04-02T04:39:50.562Z,7.45
2023-04-02T04:40:54.254Z,8.02
2023-04-02T04:41:57.678Z,7.68
2023-04-02T04:43:01.307Z,6.69
2023-04-02T04:44:14.570Z,7.60
2023-04-02T04:45:36.114Z,7.96
2023-04-02T04:46:47.929Z,7.60
2023-04-02T04:48:08.224Z,7.90
2023-04-02T04:49:13.228Z,7.41
2023-04-02T04:50:28.934Z,8.11
2023-04-02T04:51:39.158Z,7.70
2023-04-02T04:52:42.733Z,8.13
2023-04-02T04:53:48.364Z,8.47
2023-04-02T04:54:46.773Z,8.42
2023-04-02T04:55:45.273Z,7.62
2023-04-02T04:56:52.553Z,8.56
2023-04-02T04:57:55.816Z,8.53
2023-04-02T04:58:56.496Z,8.70
2023-04-02T05:00:20.770Z,8.44
2023-04-02T05:01:33.928Z,8.69
2023-04-02T05:02:41.535Z,8.89
2023-04-02T05:04:11.155Z,9.08
2023-04-02T05:05:20.107Z,8.96
2023-04-02T05:06:43.476Z,8.99
2023-04-02T05:07:53.130Z,9.29
2023-04-02T05:08:55.856Z,8.96
2023-04-02T05:10:07.310Z,9.11
2023-04-02T05:11:13.458Z,8.87
2023-04-02T05:12:22.418Z,8.71
2023-04-02T05:13:30.936Z,9.10
2023-04-02T05:14:56.892Z,8.73
2023-04-02T05:16:15.585Z,9.19
2023-04-02T05:17:41.374Z,9.01
2023-04-02T05:18:51.657Z,8.43
2023-04-02T05:20:22.537Z,8.26
2023-04-02T05:21:34.347Z,8.94
2023-04-02T05:22:42.930Z,9.61
2023-04-02T05:23:50.898Z,9.14
2023-04-02T05:24:50.493Z,9.21
2023-04-02T05:26:14.494Z,9.47
2023-04-02T05:27:39.847Z,9.40
2023-04-02T05:28:39.620Z,9.27
2023-04-02T05:29:47.273Z,8.71
2023-04-02T05:31:03.528Z,9.15
2023-04-02T05:32:03.565Z,8.85
2023-04-02T05:33:07.995Z,8.96
2023-04-02T05:34:05.041Z,8.86
2023-04-02T05:35:06.526Z,9.22
2023-04-02T05:36:09.495Z,9.11
2023-04-02T05:37:13.674Z,8.73
2023-04-02T05:38:25.136Z,9.33
2023-04-02T05:39:24.376Z,9.51
2023-04-02T05:40:30.983Z,9.80
2023-04-02T05:41:40.129Z,9.74
2023-04-02T05:42:39.465Z,10.20
2023-04-02T05:43:45.475Z,10.07
2023-04-02T05:45:08.618Z,10.19
2023-04-02T05:46:24.067Z,9.76
2023-04-02T05:47:29.579Z,9.74
2023-04-02T05:48:40.517Z,9.64
2023-04-02T05:49:51.803Z,9.71
2023-04-02T05:50:54.293Z,9.49
2023-04-02T05:51:57.580Z,9.81
2023-04-02T05:53:09.589Z,10.43
2023-04-02T05:54:25.082Z,10.54
2023-04-02T05:55:27.939Z,10.31
2023-04-02T05:56:41.302Z,10.24
2023-04-02T05:57:59.087Z,10.28
2023-04-02T05:59:20.623Z,10.38
2023-04-02T06:00:47.753Z,10.56
2023-04-02T06:02:08.572Z,11.04
2023-04-02T06:03:27.629Z,10.72
2023-04-02T06:04:43.799Z,10.25
2023-04-02T06:05:46.125Z,10.44
2023-04-02T06:06:50.144Z,10.51
2023-04-02T06:08:17.350Z,10.60
2023-04-02T06:09:36.044Z,10.41
2023-04-02T06:10:43.222Z,10.79
2023-04-02T06:11:47.243Z,10.79
2023-04-02T06:12:46.881Z,10.73
2023-04-02T06:13:43.885Z,10.52
2023-04-02T06:14:40.803Z,10.41
2023-04-02T06:15:39.178Z,10.44
2023-04-02T06:16:38.500Z,10.46
2023-04-02T06:18:07.257Z,10.79
2023-04-02T06:19:16.657Z,10.96
2023-04-02T06:20:17.803Z,10.58
2023-04-02T06:21:18.607Z,10.96
2023-04-02T06:22:24.347Z,11.01
2023-04-02T06:23:31.313Z,10.90
2023-04-02T06:24:32.040Z,11.03
2023-04-02T06:25:39.451Z,11.16
2023-04-02T06:26:51.508Z,11.08
2023-04-02T06:27:51.928Z,11.01
2023-04-02T06:28:56.027Z,11.34
2023-04-02T06:29:59.903Z,11.21
2023-04-02T06:31:07.697Z,10.85
2023-04-02T06:32:08.357Z,10.88
2023-04-02T06:33:05.667Z,11.23
2023-04-02T06:34:04.963Z,10.87
2023-04-02T06:35:01.872Z,10.61
2023-04-02T06:36:01.665Z,10.98
2023-04-02T06:37:03.980Z,10.95
2023-04-02T06:38:05.784Z,11.52
2023-04-02T06:39:11.369Z,11.66
2023-04-02T06:40:26.218Z,11.46
2023-04-02T06:41:24.653Z,11.56
2023-04-02T06:42:34.270Z,11.53
2023-04-02T06:43:38.130Z,11.73
2023-04-02T06:44:38.108Z,11.98
2023-04-02T06:45:42.229Z,12.02
2023-04-02T06:46:45.667Z,11.82
2023-04-02T06:47:49.938Z,11.51
2023-04-02T06:48:50.746Z,11.63
2023-04-02T06:49:51.760Z,11.76
2023-04-02T06:50:53.640Z,11.96
2023-04-02T06:51:54.987Z,12.12
2023-04-02T06:53:06.531Z,12.22
2023-04-02T06:54:03.935Z,12.00
2023-04-02T06:55:14.500Z,10.75
2023-04-02T06:56:27.770Z,12.30
2023-04-02T06:57:24.836Z,12.36
2023-04-02T06:58:21.823Z,12.56
2023-04-02T06:59:20.360Z,12.48
2023-04-02T07:00:41.011Z,12.36
2023-04-02T07:02:18.280Z,12.77
2023-04-02T07:03:21.866Z,12.60
2023-04-02T07:04:21.919Z,13.04
2023-04-02T07:05:18.783Z,12.97
2023-04-02T07:06:18.290Z,12.87
2023-04-02T07:07:17.970Z,13.11
2023-04-02T07:08:17.895Z,13.13
2023-04-02T07:09:19.824Z,12.84
2023-04-02T07:10:16.953Z,12.71
2023-04-02T07:11:20.788Z,12.53
2023-04-02T07:12:23.860Z,12.50
2023-04-02T07:13:22.976Z,12.22
2023-04-02T07:14:19.707Z,12.55
2023-04-02T07:15:19.454Z,12.91
2023-04-02T07:16:19.894Z,12.92
2023-04-02T07:17:17.930Z,13.36
2023-04-02T07:18:32.532Z,13.25
2023-04-02T07:19:29.251Z,13.21
2023-04-02T07:20:28.178Z,13.10
2023-04-02T07:21:26.745Z,13.12
2023-04-02T07:22:23.757Z,13.21
2023-04-02T07:23:21.255Z,12.33
2023-04-02T07:24:18.043Z,12.99
2023-04-02T07:25:14.926Z,12.81
2023-04-02T07:26:18.841Z,13.15
2023-04-02T07:27:15.760Z,13.51
2023-04-02T07:28:14.890Z,12.97
2023-04-02T07:29:16.109Z,13.17
2023-04-02T07:30:13.074Z,13.46
2023-04-02T07:31:24.494Z,13.46
2023-04-02T07:32:21.296Z,13.47
2023-04-02T07:33:21.022Z,13.71
2023-04-02T07:34:17.796Z,13.53
2023-04-02T07:35:15.489Z,13.69
2023-04-02T07:36:21.359Z,13.56
2023-04-02T07:37:18.793Z,13.49
2023-04-02T07:38:18.434Z,13.20
2023-04-02T07:39:15.736Z,13.43
2023-04-02T07:40:19.426Z,13.30
2023-04-02T07:41:16.938Z,13.28
2023-04-02T07:42:13.910Z,13.54
2023-04-02T07:43:11.291Z,13.85
2023-04-02T07:44:11.405Z,14.21
2023-04-02T07:45:08.835Z,13.87
2023-04-02T07:46:06.610Z,13.68
2023-04-02T07:47:03.562Z,13.59
2023-04-02T07:48:08.691Z,13.90
2023-04-02T07:49:05.749Z,14.25
2023-04-02T07:50:04.655Z,14.22
2023-04-02T07:51:03.388Z,13.81
2023-04-02T07:52:01.217Z,14.12
2023-04-02T07:52:58.321Z,14.15
2023-04-02T07:53:56.210Z,13.67
2023-04-02T07:54:53.189Z,14.40
2023-04-02T07:55:53.026Z,14.51
2023-04-02T07:56:49.939Z,14.25
2023-04-02T07:57:54.286Z,14.45
2023-04-02T07:58:51.085Z,14.47
2023-04-02T07:59:48.104Z,14.72
2023-04-02T08:00:44.883Z,14.88
2023-04-02T08:01:43.116Z,14.87
2023-04-02T08:02:40.166Z,14.78
2023-04-02T08:03:37.085Z,14.59
2023-04-02T08:04:33.903Z,14.68
2023-04-02T08:05:30.854Z,15.08
2023-04-02T08:06:28.403Z,15.00
2023-04-02T08:07:27.747Z,14.42
2023-04-02T08:08:26.105Z,14.47
2023-04-02T08:09:22.817Z,14.04
2023-04-02T08:10:19.674Z,13.94
2023-04-02T08:11:16.877Z,13.63
2023-04-02T08:12:14.648Z,13.94
2023-04-02T08:13:12.022Z,13.79
2023-04-02T08:14:09.862Z,12.97
2023-04-02T08:15:07.459Z,13.45
2023-04-02T08:16:05.771Z,13.54
2023-04-02T08:17:02.690Z,12.89
2023-04-02T08:17:59.663Z,13.58
2023-04-02T08:18:56.615Z,13.52
2023-04-02T08:19:55.224Z,13.75
2023-04-02T08:20:53.483Z,14.22
2023-04-02T08:21:51.928Z,13.66
2023-04-02T08:22:50.615Z,13.89
2023-04-02T08:23:47.328Z,14.14
2023-04-02T08:24:44.104Z,14.00
2023-04-02T08:25:41.216Z,13.81
2023-04-02T08:26:38.107Z,14.20
2023-04-02T08:27:34.836Z,13.84
2023-04-02T08:28:31.776Z,14.42
2023-04-02T08:29:35.614Z,14.16
2023-04-02T08:30:32.585Z,14.05
2023-04-02T08:31:30.417Z,14.23
2023-04-02T08:32:29.063Z,14.26
2023-04-02T08:33:26.270Z,14.34
2023-04-02T08:34:23.108Z,14.07
2023-04-02T08:35:19.890Z,13.88
2023-04-02T08:36:18.609Z,13.91
2023-04-02T08:37:15.709Z,14.37
2023-04-02T08:38:17.738Z,13.47
2023-04-02T08:39:14.781Z,14.18
2023-04-02T08:40:27.423Z,14.65
2023-04-02T08:41:32.339Z,14.40
2023-04-02T08:42:43.072Z,14.29
2023-04-02T08:44:08.480Z,14.10
2023-04-02T08:45:37.943Z,14.45
2023-04-02T08:46:52.113Z,14.53
2023-04-02T08:47:51.903Z,14.73
2023-04-02T08:48:56.873Z,14.31
2023-04-02T08:50:02.856Z,14.50
2023-04-02T08:51:01.694Z,14.95
2023-04-02T08:51:59.901Z,14.82
2023-04-02T08:52:59.308Z,14.81
2023-04-02T08:54:02.306Z,14.43
2023-04-02T08:55:00.643Z,14.27
2023-04-02T08:56:05.808Z,14.40
2023-04-02T08:57:17.358Z,14.73
2023-04-02T08:58:27.922Z,13.90
2023-04-02T08:59:25.158Z,14.38
2023-04-02T09:00:29.964Z,14.18
2023-04-02T09:01:56.691Z,14.17
2023-04-02T09:03:06.325Z,14.51
2023-04-02T09:04:12.698Z,14.53
2023-04-02T09:05:20.761Z,14.26
2023-04-02T09:06:21.345Z,14.48
2023-04-02T09:07:18.504Z,14.20
2023-04-02T09:08:24.585Z,14.21
2023-04-02T09:09:23.824Z,14.44
2023-04-02T09:10:32.405Z,14.71
2023-04-02T09:12:02.986Z,14.58
2023-04-02T09:13:02.300Z,14.22
2023-04-02T09:14:03.451Z,14.37
2023-04-02T09:15:16.997Z,14.61
2023-04-02T09:16:21.409Z,14.89
2023-04-02T09:17:53.494Z,15.06
2023-04-02T09:18:54.191Z,15.15
2023-04-02T09:20:12.741Z,15.27
2023-04-02T09:21:21.915Z,15.02
2023-04-02T09:22:22.219Z,14.48
2023-04-02T09:23:23.443Z,14.95
2023-04-02T09:24:20.428Z,14.64
2023-04-02T09:25:31.411Z,14.49
2023-04-02T09:26:32.314Z,14.24
2023-04-02T09:27:35.152Z,14.60
2023-04-02T09:28:32.525Z,14.61
2023-04-02T09:29:43.852Z,14.73
2023-04-02T09:31:24.298Z,14.08
2023-04-02T09:32:42.392Z,14.63
2023-04-02T09:33:43.095Z,14.61
2023-04-02T09:34:39.928Z,14.95
2023-04-02T09:35:53.961Z,14.99
2023-04-02T09:36:52.929Z,14.86
2023-04-02T09:38:18.736Z,15.20
2023-04-02T09:39:22.376Z,15.34
2023-04-02T09:41:28.915Z,15.55
2023-04-02T09:42:35.103Z,15.28
2023-04-02T09:43:40.824Z,15.34
2023-04-02T09:44:44.973Z,15.29
2023-04-02T09:45:44.420Z,15.71
2023-04-02T09:46:54.537Z,15.16
2023-04-02T09:47:55.714Z,15.31
2023-04-02T09:49:01.549Z,15.02
2023-04-02T09:50:15.363Z,15.37
2023-04-02T09:51:21.742Z,15.39
2023-04-02T09:52:29.918Z,15.69
2023-04-02T09:53:36.757Z,15.42
2023-04-02T09:54:33.764Z,15.43
2023-04-02T09:55:31.329Z,15.57
2023-04-02T09:56:29.037Z,15.45
2023-04-02T09:57:28.070Z,15.41
2023-04-02T09:58:24.961Z,14.83
2023-04-02T09:59:22.124Z,15.18
2023-04-02T10:00:32.430Z,15.17
2023-04-02T10:01:35.242Z,15.29
2023-04-02T10:02:32.339Z,15.39
2023-04-02T10:03:33.187Z,15.11
2023-04-02T10:04:47.354Z,14.88
2023-04-02T10:05:46.779Z,14.72
2023-04-02T10:06:50.334Z,14.99
2023-04-02T10:07:51.361Z,15.05
2023-04-02T10:08:48.218Z,15.34
2023-04-02T10:09:44.942Z,15.36
2023-04-02T10:10:49.800Z,15.23
2023-04-02T10:11:47.074Z,15.32
2023-04-02T10:12:50.732Z,15.13
2023-04-02T10:14:18.061Z,15.51
2023-04-02T10:15:44.375Z,15.60
2023-04-02T10:16:56.821Z,15.77
2023-04-02T10:18:08.060Z,15.85
2023-04-02T10:19:21.096Z,15.98
2023-04-02T10:20:24.535Z,15.89
2023-04-02T10:21:32.551Z,15.83
2023-04-02T10:22:29.646Z,15.26
2023-04-02T10:23:30.999Z,15.64
2023-04-02T10:24:29.214Z,15.43
2023-04-02T10:25:34.723Z,15.40
2023-04-02T10:27:05.223Z,15.58
2023-04-02T10:28:19.509Z,15.41
2023-04-02T10:30:15.057Z,15.80
2023-04-02T10:31:33.750Z,15.47
2023-04-02T10:32:46.641Z,16.20
2023-04-02T10:33:51.358Z,14.77
2023-04-02T10:35:01.890Z,15.62
2023-04-02T10:36:22.771Z,15.70
2023-04-02T10:37:31.364Z,16.02
2023-04-02T10:38:38.798Z,16.00
2023-04-02T10:39:48.791Z,16.10
2023-04-02T10:40:58.731Z,16.07
2023-04-02T10:42:20.345Z,16.28
2023-04-02T10:44:16.689Z,16.20
2023-04-02T10:45:48.065Z,15.69
2023-04-02T10:47:01.531Z,15.96
2023-04-02T10:48:10.712Z,15.80
2023-04-02T10:49:17.452Z,15.83
2023-04-02T10:50:38.407Z,15.50
2023-04-02T10:52:04.331Z,15.66
2023-04-02T10:53:27.115Z,15.67
2023-04-02T10:54:32.639Z,15.57
2023-04-02T10:55:39.728Z,15.85
2023-04-02T10:56:44.472Z,16.11
2023-04-02T10:57:47.729Z,15.81
2023-04-02T10:59:05.576Z,15.68
2023-04-02T11:00:11.966Z,15.77
2023-04-02T11:01:17.927Z,15.72
2023-04-02T11:02:31.865Z,15.01
2023-04-02T11:03:40.010Z,15.32
2023-04-02T11:04:47.349Z,15.81
2023-04-02T11:05:54.279Z,15.76
2023-04-02T11:07:13.121Z,15.75
2023-04-02T11:08:20.568Z,15.64
2023-04-02T11:09:24.799Z,15.15
2023-04-02T11:10:22.367Z,15.50
2023-04-02T11:11:31.610Z,15.33
2023-04-02T11:12:43.165Z,15.43
2023-04-02T11:13:42.502Z,15.36
2023-04-02T11:14:41.081Z,15.56
2023-04-02T11:15:39.579Z,15.50
2023-04-02T11:16:39.430Z,15.47
2023-04-02T11:17:39.440Z,15.43
2023-04-02T11:18:37.394Z,15.62
2023-04-02T11:19:36.018Z,15.73
2023-04-02T11:20:50.912Z,15.94
2023-04-02T11:22:02.592Z,16.05
2023-04-02T11:23:18.813Z,15.76
2023-04-02T11:24:24.856Z,15.95
2023-04-02T11:25:23.210Z,16.15
2023-04-02T11:26:47.468Z,16.23
2023-04-02T11:27:44.395Z,16.49
2023-04-02T11:28:41.383Z,16.35
2023-04-02T11:29:49.081Z,16.44
2023-04-02T11:30:48.997Z,16.31
2023-04-02T11:31:46.779Z,16.56
2023-04-02T11:32:49.861Z,16.51
2023-04-02T11:33:48.845Z,16.45
2023-04-02T11:35:02.997Z,16.22
2023-04-02T11:36:02.553Z,15.99
2023-04-02T11:37:02.388Z,16.28
2023-04-02T11:38:21.220Z,16.36
2023-04-02T11:39:58.262Z,16.47
2023-04-02T11:40:59.484Z,16.41
2023-04-02T11:42:24.906Z,17.04
2023-04-02T11:43:33.636Z,16.80
2023-04-02T11:44:30.714Z,16.54
2023-04-02T11:45:27.444Z,16.91
2023-04-02T11:46:26.768Z,16.92
2023-04-02T11:47:25.550Z,17.00
2023-04-02T11:48:22.511Z,16.81
2023-04-02T11:49:56.257Z,16.89
2023-04-02T11:50:53.142Z,16.58
2023-04-02T11:51:56.608Z,16.60
2023-04-02T11:53:02.976Z,16.54
2023-04-02T11:53:59.777Z,16.36
2023-04-02T11:55:20.453Z,16.63
2023-04-02T11:56:27.827Z,16.36
2023-04-02T11:57:30.791Z,16.01
2023-04-02T11:58:30.742Z,16.32
2023-04-02T11:59:41.552Z,15.99
2023-04-02T12:01:34.863Z,16.01
2023-04-02T12:03:06.887Z,16.15
2023-04-02T12:04:32.905Z,16.03
2023-04-02T12:05:58.971Z,16.00
2023-04-02T12:07:17.582Z,16.14
2023-04-02T12:08:31.131Z,16.17
2023-04-02T12:09:44.806Z,15.98
2023-04-02T12:10:55.416Z,15.41
2023-04-02T12:11:59.474Z,15.57
2023-04-02T12:12:56.290Z,15.50
2023-04-02T12:13:54.566Z,15.66
2023-04-02T12:14:53.683Z,16.02
2023-04-02T12:15:52.706Z,16.48
2023-04-02T12:16:49.858Z,16.44
2023-04-02T12:17:46.922Z,16.14
2023-04-02T12:18:54.050Z,15.91
2023-04-02T12:19:54.976Z,16.28
2023-04-02T12:20:55.944Z,16.22
2023-04-02T12:21:53.616Z,16.02
2023-04-02T12:22:59.319Z,16.14
2023-04-02T12:23:59.629Z,15.89
2023-04-02T12:25:03.395Z,16.48
2023-04-02T12:26:03.907Z,16.61
2023-04-02T12:27:22.569Z,16.54
2023-04-02T12:28:20.130Z,16.59
2023-04-02T12:29:25.046Z,16.02
2023-04-02T12:30:23.631Z,15.59
2023-04-02T12:31:25.237Z,15.41
2023-04-02T12:32:29.554Z,16.14
2023-04-02T12:33:33.666Z,15.91
2023-04-02T12:34:31.114Z,15.56
2023-04-02T12:35:38.826Z,16.41
2023-04-02T12:36:36.140Z,16.40
2023-04-02T12:37:33.102Z,16.24
2023-04-02T12:38:34.005Z,16.09
2023-04-02T12:39:33.263Z,16.49
2023-04-02T12:40:30.062Z,16.63
2023-04-02T12:41:33.838Z,16.10
2023-04-02T12:42:36.500Z,16.61
2023-04-02T12:43:35.822Z,16.56
2023-04-02T12:44:32.907Z,16.73
2023-04-02T12:45:34.124Z,16.54
2023-04-02T12:46:33.749Z,16.73
2023-04-02T12:47:31.270Z,16.58
2023-04-02T12:48:31.245Z,16.75
2023-04-02T12:49:33.642Z,16.91
2023-04-02T12:50:30.763Z,16.77
2023-04-02T12:51:28.456Z,16.71
2023-04-02T12:52:28.963Z,16.63
2023-04-02T12:53:35.747Z,16.65
2023-04-02T12:54:38.157Z,16.14
2023-04-02T12:55:34.971Z,16.66
2023-04-02T12:56:31.958Z,16.23
2023-04-02T12:57:32.294Z,16.29
2023-04-02T12:58:39.718Z,16.56
2023-04-02T12:59:39.065Z,16.10
2023-04-02T13:00:36.869Z,16.38
2023-04-02T13:01:34.093Z,16.49
2023-04-02T13:02:43.744Z,16.00
2023-04-02T13:03:40.798Z,16.43
2023-04-02T13:04:47.826Z,16.46
2023-04-02T13:05:50.707Z,16.41
2023-04-02T13:06:58.496Z,16.21
2023-04-02T13:07:55.431Z,16.36
2023-04-02T13:08:52.505Z,16.37
2023-04-02T13:09:55.304Z,15.40
2023-04-02T13:10:56.230Z,15.86
2023-04-02T13:11:53.114Z,15.76
2023-04-02T13:13:03.111Z,15.77
2023-04-02T13:14:05.184Z,15.40
2023-04-02T13:15:31.582Z,16.28
2023-04-02T13:16:36.096Z,16.49
2023-04-02T13:17:46.850Z,16.51
2023-04-02T13:18:47.004Z,16.63
2023-04-02T13:19:43.880Z,15.96
2023-04-02T13:20:42.806Z,16.49
2023-04-02T13:21:39.553Z,16.73
2023-04-02T13:22:36.652Z,16.74
2023-04-02T13:23:36.659Z,16.80
2023-04-02T13:24:34.172Z,16.41
2023-04-02T13:25:36.673Z,16.56
2023-04-02T13:26:33.791Z,16.48
2023-04-02T13:27:30.632Z,16.55
2023-04-02T13:28:28.785Z,16.31
2023-04-02T13:29:31.224Z,16.38
2023-04-02T13:30:29.231Z,16.55
2023-04-02T13:31:26.546Z,16.61
2023-04-02T13:32:23.510Z,16.66
2023-04-02T13:33:20.530Z,15.79
2023-04-02T13:34:18.363Z,16.58
2023-04-02T13:35:15.758Z,15.98
2023-04-02T13:36:16.442Z,16.31
2023-04-02T13:37:13.421Z,16.28
2023-04-02T13:38:10.515Z,16.81
2023-04-02T13:39:07.605Z,17.05
2023-04-02T13:40:06.103Z,17.00
2023-04-02T13:41:04.041Z,16.98
2023-04-02T13:42:06.565Z,17.00
2023-04-02T13:43:05.116Z,16.81
2023-04-02T13:44:03.815Z,16.41
2023-04-02T13:45:00.720Z,16.76
2023-04-02T13:46:00.787Z,16.58
2023-04-02T13:46:58.392Z,16.24
2023-04-02T13:48:00.973Z,16.21
2023-04-02T13:48:59.174Z,16.64
2023-04-02T13:49:55.945Z,16.47
2023-04-02T13:50:53.289Z,16.45
2023-04-02T13:51:58.782Z,16.50
2023-04-02T13:53:00.135Z,16.30
2023-04-02T13:53:58.096Z,16.17
2023-04-02T13:55:01.307Z,15.76
2023-04-02T13:55:58.109Z,16.36
2023-04-02T13:56:57.050Z,16.26
2023-04-02T13:57:56.007Z,16.06
2023-04-02T13:58:53.063Z,15.64
2023-04-02T13:59:49.905Z,15.94
2023-04-02T14:00:47.823Z,16.21
2023-04-02T14:01:47.510Z,16.26
2023-04-02T14:02:51.288Z,16.21
2023-04-02T14:03:48.400Z,15.98
2023-04-02T14:04:51.111Z,15.92
2023-04-02T14:06:19.083Z,15.95
2023-04-02T14:07:37.068Z,16.21
2023-04-02T14:08:53.977Z,16.08
2023-04-02T14:10:05.547Z,16.01
2023-04-02T14:11:46.908Z,16.10
2023-04-02T14:13:09.157Z,15.56
2023-04-02T14:14:29.084Z,16.26
2023-04-02T14:16:02.322Z,15.92
2023-04-02T14:17:05.111Z,16.56
2023-04-02T14:18:12.846Z,16.51
2023-04-02T14:19:12.387Z,16.60